KLM77W EHAM-EGKK
Flight info
| Callsign | KLM77W |
|---|---|
| Flight time | N/A |
| Altitude | 24000 |
| Route | IDRID L980 ABNED Z344 AMRIV Q63 ARREK Y4 TEBRA |
| Aircraft | B772/H-SDE2E3FGHIJ5LORVWXY/LB1D1 |
Departure
| Time | 2026-04-27 20:21 |
|---|---|
| Airport | Amsterdam Airport Schiphol (EHAM) |
Arrival
| Time | N/A |
|---|---|
| Airport | London Gatwick Airport (EGKK) |
| Time | Latitude | Longitude | Altitude | Speed | Heading |
|---|---|---|---|---|---|
| 2026-04-27 19:50 | 52.31287 | 4.76916 | 13 ft | 0 kts | 303° |
| 2026-04-27 20:08 | 52.31284 | 4.76925 | 13 ft | 2 kts | 303° |
| 2026-04-27 20:08 | 52.31276 | 4.76945 | 13 ft | 2 kts | 303° |
| 2026-04-27 20:08 | 52.31267 | 4.76966 | 14 ft | 2 kts | 303° |
| 2026-04-27 20:09 | 52.31260 | 4.76987 | 14 ft | 2 kts | 303° |
| 2026-04-27 20:09 | 52.31251 | 4.77007 | 14 ft | 2 kts | 316° |
| 2026-04-27 20:09 | 52.31239 | 4.77019 | 14 ft | 2 kts | 349° |
| 2026-04-27 20:09 | 52.31224 | 4.77019 | 15 ft | 2 kts | 17° |
| 2026-04-27 20:10 | 52.31215 | 4.77013 | 15 ft | 0 kts | 35° |
| 2026-04-27 20:10 | 52.31212 | 4.77010 | 15 ft | 0 kts | 34° |
| 2026-04-27 20:12 | 52.31215 | 4.77013 | 15 ft | 2 kts | 34° |
| 2026-04-27 20:12 | 52.31264 | 4.77065 | 14 ft | 14 kts | 33° |
| 2026-04-27 20:13 | 52.31365 | 4.77164 | 14 ft | 18 kts | 19° |
| 2026-04-27 20:13 | 52.31481 | 4.77198 | 10 ft | 19 kts | 7° |
| 2026-04-27 20:13 | 52.31568 | 4.77063 | 6 ft | 23 kts | 271° |
| 2026-04-27 20:13 | 52.31558 | 4.76779 | 5 ft | 27 kts | 266° |
| 2026-04-27 20:14 | 52.31547 | 4.76461 | 4 ft | 19 kts | 267° |
| 2026-04-27 20:14 | 52.31540 | 4.76268 | 4 ft | 18 kts | 266° |
| 2026-04-27 20:14 | 52.31533 | 4.76036 | 4 ft | 21 kts | 268° |
| 2026-04-27 20:14 | 52.31524 | 4.75774 | 6 ft | 24 kts | 267° |
| 2026-04-27 20:15 | 52.31515 | 4.75490 | 9 ft | 26 kts | 267° |
| 2026-04-27 20:15 | 52.31504 | 4.75166 | 6 ft | 30 kts | 267° |
| 2026-04-27 20:15 | 52.31490 | 4.74785 | 1 ft | 35 kts | 266° |
| 2026-04-27 20:15 | 52.31475 | 4.74414 | 0 ft | 30 kts | 266° |
| 2026-04-27 20:16 | 52.31487 | 4.74212 | 2 ft | 14 kts | 300° |
| 2026-04-27 20:16 | 52.31581 | 4.74153 | 1 ft | 17 kts | 2° |
| 2026-04-27 20:16 | 52.31668 | 4.74160 | 0 ft | 20 kts | 4° |
| 2026-04-27 20:16 | 52.31876 | 4.74185 | 0 ft | 24 kts | 2° |
| 2026-04-27 20:17 | 52.32004 | 4.74151 | 0 ft | 18 kts | 325° |
| 2026-04-27 20:17 | 52.32041 | 4.73943 | 0 ft | 21 kts | 272° |
| 2026-04-27 20:17 | 52.32049 | 4.73701 | 2 ft | 22 kts | 274° |
| 2026-04-27 20:17 | 52.32056 | 4.73519 | 2 ft | 25 kts | 274° |
| 2026-04-27 20:18 | 52.32200 | 4.73197 | 0 ft | 30 kts | 319° |
| 2026-04-27 20:18 | 52.32365 | 4.72965 | 0 ft | 32 kts | 319° |
| 2026-04-27 20:18 | 52.32478 | 4.72806 | 0 ft | 33 kts | 320° |
| 2026-04-27 20:18 | 52.32711 | 4.72459 | 2 ft | 34 kts | 312° |
| 2026-04-27 20:19 | 52.32876 | 4.72158 | 2 ft | 36 kts | 312° |
| 2026-04-27 20:19 | 52.33039 | 4.71851 | 0 ft | 27 kts | 310° |
| 2026-04-27 20:19 | 52.33121 | 4.71684 | 0 ft | 29 kts | 303° |
| 2026-04-27 20:19 | 52.33114 | 4.71474 | 0 ft | 15 kts | 231° |
| 2026-04-27 20:20 | 52.33009 | 4.71316 | 0 ft | 25 kts | 221° |
| 2026-04-27 20:20 | 52.32880 | 4.71113 | 0 ft | 23 kts | 241° |
| 2026-04-27 20:20 | 52.32921 | 4.70891 | 0 ft | 23 kts | 352° |
| 2026-04-27 20:20 | 52.33138 | 4.70908 | 0 ft | 52 kts | 5° |
| 2026-04-27 20:21 | 52.33850 | 4.70982 | 0 ft | 150 kts | 4° |
| 2026-04-27 20:21 | 52.34901 | 4.71231 | 880 ft | 143 kts | 33° |